< Typhoon 199425 1994 Season Typhoon 199427 >
Typhoon 199426 (ORCHID)
General InformationTrack Information on Google MapsDetailed Wind InformationList of All Images || NewsDisaster Info.ResourceGoogle EarthGE AnimationAtom FeedGeoJSON
Detalied Best Track (Time Zone = UTC)
Year Month Day Hour Lat. Long. Pressure (hPa) Wind (kt) Class Image Chart
1994 9 17 12 13.5 136.5 1000 0 2 Image Chart
1994 9 17 18 13.5 137.5 1000 0 2 Image Chart
1994 9 18 00 13.3 139.0 1000 0 2 Image Chart
1994 9 18 06 13.0 140.5 1000 0 2 Image Chart
1994 9 18 12 12.0 140.7 998 0 2 Image Chart
1994 9 18 18 11.8 141.6 996 35 3 Image Chart
1994 9 19 00 12.1 142.5 996 35 3 Image Chart
1994 9 19 06 12.7 142.3 996 35 3 Image Chart
1994 9 19 12 13.5 142.5 996 35 3 Image Chart
1994 9 19 18 14.2 142.8 996 35 3 Image Chart
1994 9 20 00 14.8 143.2 994 40 3 Image Chart
1994 9 20 06 15.6 142.2 994 40 3 Image Chart
1994 9 20 12 16.1 141.4 994 40 3 Image Chart
1994 9 20 18 17.1 141.1 992 45 3 Image Chart
1994 9 21 00 18.0 141.4 990 45 3 Image Chart
1994 9 21 06 18.5 141.5 990 45 3 Image Chart
1994 9 21 12 19.0 140.9 990 45 3 Image Chart
1994 9 21 18 18.6 140.1 985 50 4 Image Chart
1994 9 22 00 18.2 139.3 985 50 4 Image Chart
1994 9 22 06 17.8 138.6 980 55 4 Image Chart
1994 9 22 12 17.5 138.1 980 55 4 Image Chart
1994 9 22 18 17.2 137.9 980 55 4 Image Chart
1994 9 23 00 17.2 138.1 975 60 4 Image Chart
1994 9 23 06 17.5 138.0 970 65 5 Image Chart
1994 9 23 12 17.9 137.8 960 75 5 Image Chart
1994 9 23 18 18.4 137.5 950 85 5 Image Chart
1994 9 24 00 18.9 137.1 940 90 5 Image Chart
1994 9 24 06 19.2 136.8 930 95 5 Image Chart
1994 9 24 12 19.4 136.7 925 100 5 Image Chart
1994 9 24 18 19.8 136.7 925 100 5 Image Chart
1994 9 25 00 20.2 136.7 925 100 5 Image Chart
1994 9 25 06 20.7 136.5 925 100 5 Image Chart
1994 9 25 12 21.1 136.4 925 100 5 Image Chart
1994 9 25 18 21.9 136.1 925 100 5 Image Chart
1994 9 26 00 22.5 135.7 925 100 5 Image Chart
1994 9 26 06 23.4 134.9 925 100 5 Image Chart
1994 9 26 12 24.0 134.1 925 100 5 Image Chart
1994 9 26 15 24.3 133.6 925 100 5 Image Chart
1994 9 26 18 24.5 133.5 925 100 5 Image Chart
1994 9 26 21 24.8 133.3 925 100 5 Image Chart
1994 9 27 00 25.2 132.9 930 95 5 Image Chart
1994 9 27 03 25.4 132.8 930 95 5 Image Chart
1994 9 27 06 25.6 132.7 930 95 5 Image Chart
1994 9 27 09 25.9 132.6 930 95 5 Image Chart
1994 9 27 12 26.2 132.6 930 95 5 Image Chart
1994 9 27 15 26.5 132.5 930 95 5 Image Chart
1994 9 27 18 26.8 132.4 930 95 5 Image Chart
1994 9 27 21 27.1 132.4 930 95 5 Image Chart
1994 9 28 00 27.3 132.5 935 90 5 Image Chart
1994 9 28 03 27.7 132.6 935 90 5 Image Chart
1994 9 28 06 28.0 132.7 935 90 5 Image Chart
1994 9 28 09 28.4 132.9 935 90 5 Image Chart
1994 9 28 12 28.6 133.0 935 90 5 Image Chart
1994 9 28 15 29.1 133.3 940 85 5 Image Chart
1994 9 28 18 29.5 133.5 940 85 5 Image Chart
1994 9 28 21 30.1 133.7 940 85 5 Image Chart
1994 9 29 00 31.0 134.0 945 80 5 Image Chart
1994 9 29 03 31.6 134.3 945 80 5 Image Chart
1994 9 29 06 32.4 134.7 950 80 5 Image Chart
1994 9 29 09 33.2 135.1 950 80 5 Image Chart
1994 9 29 10 33.5 135.3 950 80 5 Image Chart
1994 9 29 12 34.2 135.7 960 75 5 Image Chart
1994 9 29 15 35.4 136.1 975 60 4 Image Chart
1994 9 29 18 36.9 136.4 980 55 4 Image Chart
1994 9 29 21 38.0 137.6 985 55 4 Image Chart
1994 9 30 00 39.3 138.3 985 55 4 Image Chart
1994 9 30 03 40.6 138.8 985 50 4 Image Chart
1994 9 30 06 41.4 139.2 990 0 6 Image Chart
1994 9 30 12 43.5 140.5 998 0 6 Image Chart
1994 9 30 18 44.5 141.0 1000 0 6 Image Chart
1994 10 1 00 46.0 143.5 1002 0 6 Image Chart
1994 10 1 06 47.0 145.0 1002 0 6 Image Chart
1994 10 1 12 48.0 146.0 1002 0 6 Image Chart
1994 10 1 18 49.0 147.0 1000 0 6 Image Chart
1994 10 2 00 50.0 148.0 1000 0 6 Image Chart
1994 10 2 06 50.5 149.0 1000 0 6 Image Chart
1994 10 2 12 50.5 149.5 1000 0 6 Image Chart
Japan Meteorological Agency Best Track Data | Correction Date : 1995-01-30
< Typhoon 199425 1994 Season Typhoon 199427 >

Help